Messwerte Ghazvin

Temperatur

Temperatur
°C
1576251000 19.00 19.00 5
1576254600 20.00 20.00 4
1576258200 21.00 21.00 4
1576261800 22.00 22.00
1576265400 23.00 23.00 4
1576269000 0.00 0.00 3
1576272600 1.00 1.00
1576276200 2.00 2.00 2
1576279800 3.00 3.00 1
1576283400 4.00 4.00
1576287000 5.00 5.00 0
1576290600 6.00 6.00 1
1576294200 7.00 7.00 1
1576297800 8.00 8.00 0
1576301400 9.00 9.00 2
1576305000 10.00 10.00 5
1576308600 11.00 11.00 6
1576312200 12.00 12.00 8
1576315800 13.00 13.00 9
1576319400 14.00 14.00 9
1576323000 15.00 15.00 10
1576326600 16.00 16.00 10
1576330200 17.00 17.00 9
1576333800 18.00 18.00 6

Aktuellste Messwerte

Wettercharakter
Wetter: Nebel
Temperatur
5 °C
Feuchtigkeit
85 %
Wind
5 km/hWindrichtung: West
Luftdruck
1021 hPa
Messzeit: 14. Dezember 2019, 18.30Datenquelle: METAR

Weitere Messstationen in der Nähe

Messstation Temperatur Entfernung
Karadsch 5 °C 91 km
Ramsar 11 °C 94 km
Rasht 11 °C 111 km
Teheran 8 °C 135 km
Teheran-Robat Karim 8 °C 139 km
Noshahr 10 °C 138 km
Zanjan 4 °C 144 km

Wind

Windrichtung Böen Mittelwind
° km/h km/h
1576251000 19.00 18.00 - 19.00 0
1576254600 20.00 19.00 - 20.00 130° 5
1576258200 21.00 20.00 - 21.00 100° 5
1576261800 22.00 21.00 - 22.00
1576265400 23.00 22.00 - 23.00 110° 5
1576269000 0.00 23.00 - 0.00 0
1576272600 1.00 0.00 - 1.00
1576276200 2.00 1.00 - 2.00 0
1576279800 3.00 2.00 - 3.00 20° 5
1576283400 4.00 3.00 - 4.00
1576287000 5.00 4.00 - 5.00 20° 5
1576290600 6.00 5.00 - 6.00 360° 5
1576294200 7.00 6.00 - 7.00 0
1576297800 8.00 7.00 - 8.00 20° 5
1576301400 9.00 8.00 - 9.00 0
1576305000 10.00 9.00 - 10.00 210° 5
1576308600 11.00 10.00 - 11.00 50° 5
1576312200 12.00 11.00 - 12.00 250° 5
1576315800 13.00 12.00 - 13.00 220° 5
1576319400 14.00 13.00 - 14.00 220° 5
1576323000 15.00 14.00 - 15.00 190° 5
1576326600 16.00 15.00 - 16.00 130° 5
1576330200 17.00 16.00 - 17.00 130° 5
1576333800 18.00 17.00 - 18.00 230° 5

Ihre Wetterstation

Fehlt Ihre Wetterstation auf unserem Portal?

Schreiben Sie an network@meteonews.ch

Klima

Wann ist es am wärmsten? Wann regnet es am wenigsten? Unsere Klimadaten geben Auskunft.